Time,TemperatureF,DewpointF,PressureIn,WindDirection,WindDirectionDegrees,WindSpeedMPH,WindSpeedGustMPH,Humidity,HourlyPrecipIn,Conditions,Clouds,dailyrainin,SoftwareType,DateUTC
2013-12-19 00:00:00,25.4,24.4,29.77,WNW,293,3.0,3.0,96,0.00,,,0.00,Wunderground v.1.15,2013-12-19 04:00:00,
2013-12-19 00:10:00,25.3,24.3,29.77,NNW,333,4.0,15.0,96,0.00,,,0.00,Wunderground v.1.15,2013-12-19 04:10:00,
2013-12-19 00:20:00,25.2,24.0,29.78,West,270,3.0,15.0,95,0.00,,,0.00,Wunderground v.1.15,2013-12-19 04:20:00,
2013-12-19 00:30:00,25.1,23.9,29.79,West,260,3.0,3.0,95,0.00,,,0.00,Wunderground v.1.15,2013-12-19 04:30:00,
2013-12-19 00:40:00,25.0,23.8,29.79,NNE,26,3.0,15.0,95,0.00,,,0.00,Wunderground v.1.15,2013-12-19 04:40:00,
2013-12-19 00:50:00,24.8,23.6,29.80,West,275,4.0,15.0,95,0.00,,,0.00,Wunderground v.1.15,2013-12-19 04:50:00,
2013-12-19 01:00:00,24.5,23.3,29.81,WSW,257,4.0,4.0,95,0.00,,,0.00,Wunderground v.1.15,2013-12-19 05:00:00,
2013-12-19 01:10:00,23.6,22.4,29.82,WNW,294,5.0,5.0,95,0.00,,,0.00,Wunderground v.1.15,2013-12-19 05:10:00,
2013-12-19 01:20:00,22.9,21.7,29.83,SW,217,5.0,5.0,95,0.00,,,0.00,Wunderground v.1.15,2013-12-19 05:20:00,
2013-12-19 01:30:00,22.6,21.4,29.84,West,263,5.0,5.0,95,0.00,,,0.00,Wunderground v.1.15,2013-12-19 05:30:00,
2013-12-19 01:40:00,22.1,20.6,29.84,South,189,4.0,4.0,94,0.00,,,0.00,Wunderground v.1.15,2013-12-19 05:40:00,
2013-12-19 01:50:00,21.7,20.2,29.84,WSW,247,4.0,15.0,94,0.00,,,0.00,Wunderground v.1.15,2013-12-19 05:50:00,
2013-12-19 02:00:00,21.4,19.9,29.85,West,267,4.0,4.0,94,0.00,,,0.00,Wunderground v.1.15,2013-12-19 06:00:00,
2013-12-19 02:10:00,20.8,19.1,29.87,South,190,4.0,4.0,93,0.00,,,0.00,Wunderground v.1.15,2013-12-19 06:10:00,
2013-12-19 02:20:00,20.1,18.4,29.87,West,274,4.0,4.0,93,0.00,,,0.00,Wunderground v.1.15,2013-12-19 06:20:00,
2013-12-19 02:30:00,19.6,17.9,29.87,SSW,195,4.0,4.0,93,0.00,,,0.00,Wunderground v.1.15,2013-12-19 06:30:00,
2013-12-19 02:40:00,19.0,17.3,29.88,SW,217,3.0,15.0,93,0.00,,,0.00,Wunderground v.1.15,2013-12-19 06:40:00,
2013-12-19 02:50:00,18.2,16.3,29.89,SSW,208,4.0,4.0,92,0.00,,,0.00,Wunderground v.1.15,2013-12-19 06:50:00,
2013-12-19 03:00:00,17.5,15.6,29.89,SW,217,4.0,15.0,92,0.00,,,0.00,Wunderground v.1.15,2013-12-19 07:00:00,
2013-12-19 03:10:00,17.0,15.1,29.90,SW,228,4.0,4.0,92,0.00,,,0.00,Wunderground v.1.15,2013-12-19 07:10:00,
2013-12-19 03:20:00,16.6,14.7,29.90,WSW,250,3.0,3.0,92,0.00,,,0.00,Wunderground v.1.15,2013-12-19 07:20:00,
2013-12-19 03:30:00,16.3,14.4,29.91,SSW,200,3.0,3.0,92,0.00,,,0.00,Wunderground v.1.15,2013-12-19 07:30:00,
2013-12-19 03:40:00,16.0,14.1,29.91,SSW,195,3.0,3.0,92,0.00,,,0.00,Wunderground v.1.15,2013-12-19 07:40:00,
2013-12-19 03:50:00,15.8,13.9,29.91,SSW,197,3.0,3.0,92,0.00,,,0.00,Wunderground v.1.15,2013-12-19 07:50:00,
2013-12-19 04:00:00,15.8,13.9,29.92,West,276,3.0,3.0,92,0.00,,,0.00,Wunderground v.1.15,2013-12-19 08:00:00,
2013-12-19 04:10:00,15.8,13.9,29.92,West,280,4.0,15.0,92,0.00,,,0.00,Wunderground v.1.15,2013-12-19 08:10:00,
2013-12-19 04:20:00,15.7,13.5,29.93,NW,318,4.0,15.0,91,0.00,,,0.00,Wunderground v.1.15,2013-12-19 08:20:00,
2013-12-19 04:30:00,15.5,13.3,29.93,West,270,3.0,3.0,91,0.00,,,0.00,Wunderground v.1.15,2013-12-19 08:30:00,
2013-12-19 04:40:00,15.4,13.2,29.93,NNW,333,3.0,3.0,91,0.00,,,0.00,Wunderground v.1.15,2013-12-19 08:40:00,
2013-12-19 04:50:00,15.1,12.7,29.93,WSW,238,3.0,15.0,90,0.00,,,0.00,Wunderground v.1.15,2013-12-19 08:50:00,
2013-12-19 05:00:00,15.1,12.9,29.94,WSW,257,4.0,4.0,91,0.00,,,0.00,Wunderground v.1.15,2013-12-19 09:00:00,
2013-12-19 05:10:00,15.0,12.6,29.94,WSW,246,4.0,15.0,90,0.00,,,0.00,Wunderground v.1.15,2013-12-19 09:10:00,
2013-12-19 05:20:00,14.9,12.5,29.95,WSW,245,5.0,15.0,90,0.00,,,0.00,Wunderground v.1.15,2013-12-19 09:20:00,
2013-12-19 05:30:00,14.7,12.3,29.96,SW,222,4.0,4.0,90,0.00,,,0.00,Wunderground v.1.15,2013-12-19 09:30:00,
2013-12-19 05:40:00,14.5,12.1,29.96,SSW,195,4.0,4.0,90,0.00,,,0.00,Wunderground v.1.15,2013-12-19 09:40:00,
2013-12-19 05:50:00,14.7,12.3,29.97,South,169,6.0,6.0,90,0.00,,,0.00,Wunderground v.1.15,2013-12-19 09:50:00,
2013-12-19 06:00:00,14.8,12.4,29.97,WSW,242,4.0,4.0,90,0.00,,,0.00,Wunderground v.1.15,2013-12-19 10:00:00,
2013-12-19 06:10:00,14.8,12.4,29.97,SSW,207,3.0,15.0,90,0.00,,,0.00,Wunderground v.1.15,2013-12-19 10:10:00,
2013-12-19 06:20:00,14.7,12.3,29.98,SW,228,3.0,15.0,90,0.00,,,0.00,Wunderground v.1.15,2013-12-19 10:20:00,
2013-12-19 06:30:00,14.5,12.1,29.98,SSW,208,3.0,15.0,90,0.00,,,0.00,Wunderground v.1.15,2013-12-19 10:30:00,
2013-12-19 06:40:00,14.4,12.0,29.99,SSW,207,3.0,3.0,90,0.00,,,0.00,Wunderground v.1.15,2013-12-19 10:40:00,
2013-12-19 06:50:00,14.1,11.7,29.99,SW,214,2.0,15.0,90,0.00,,,0.00,Wunderground v.1.15,2013-12-19 10:50:00,
2013-12-19 07:00:00,13.9,11.8,30.00,SW,226,2.0,15.0,91,0.00,,,0.00,Wunderground v.1.15,2013-12-19 11:00:00,
2013-12-19 07:10:00,13.8,11.4,30.01,WSW,240,2.0,2.0,90,0.00,,,0.00,Wunderground v.1.15,2013-12-19 11:10:00,
2013-12-19 07:20:00,13.7,11.6,30.00,SSW,201,2.0,15.0,91,0.00,,,0.00,Wunderground v.1.15,2013-12-19 11:20:00,
2013-12-19 07:30:00,13.6,11.5,30.01,SW,224,2.0,2.0,91,0.00,,,0.00,Wunderground v.1.15,2013-12-19 11:30:00,
2013-12-19 07:40:00,13.7,11.6,30.02,WSW,239,2.0,15.0,91,0.00,,,0.00,Wunderground v.1.15,2013-12-19 11:40:00,
2013-12-19 07:50:00,13.9,11.8,30.02,South,190,2.0,15.0,91,0.00,,,0.00,Wunderground v.1.15,2013-12-19 11:50:00,
2013-12-19 08:00:00,14.3,12.2,30.02,WSW,249,3.0,3.0,91,0.00,,,0.00,Wunderground v.1.15,2013-12-19 12:00:00,
2013-12-19 08:10:00,14.6,12.5,30.03,SSW,211,3.0,3.0,91,0.00,,,0.00,Wunderground v.1.15,2013-12-19 12:10:00,
2013-12-19 08:20:00,15.2,12.8,30.04,WNW,290,4.0,15.0,90,0.00,,,0.00,Wunderground v.1.15,2013-12-19 12:20:00,
2013-12-19 08:30:00,15.6,12.9,30.04,SW,224,3.0,3.0,89,0.00,,,0.00,Wunderground v.1.15,2013-12-19 12:30:00,
2013-12-19 08:40:00,16.1,13.4,30.05,SW,215,3.0,15.0,89,0.00,,,0.00,Wunderground v.1.15,2013-12-19 12:40:00,
2013-12-19 08:50:00,16.6,13.7,30.05,SW,226,3.0,15.0,88,0.00,,,0.00,Wunderground v.1.15,2013-12-19 12:50:00,
2013-12-19 09:00:00,16.9,13.7,30.05,WSW,245,3.0,3.0,87,0.00,,,0.00,Wunderground v.1.15,2013-12-19 13:00:00,
2013-12-19 09:10:00,17.2,14.0,30.06,SW,224,3.0,3.0,87,0.00,,,0.00,Wunderground v.1.15,2013-12-19 13:10:00,
2013-12-19 09:20:00,17.6,14.1,30.05,WSW,245,3.0,15.0,86,0.00,,,0.00,Wunderground v.1.15,2013-12-19 13:20:00,
2013-12-19 09:30:00,17.9,14.4,30.06,WSW,243,3.0,3.0,86,0.00,,,0.00,Wunderground v.1.15,2013-12-19 13:30:00,
2013-12-19 09:40:00,18.4,14.9,30.07,West,266,2.0,15.0,86,0.00,,,0.00,Wunderground v.1.15,2013-12-19 13:40:00,
2013-12-19 09:50:00,18.8,15.0,30.07,West,271,2.0,2.0,85,0.00,,,0.00,Wunderground v.1.15,2013-12-19 13:50:00,
2013-12-19 10:00:00,19.0,15.2,30.07,SSW,212,2.0,2.0,85,0.00,,,0.00,Wunderground v.1.15,2013-12-19 14:00:00,
2013-12-19 10:10:00,19.0,15.2,30.07,SSW,206,3.0,15.0,85,0.00,,,0.00,Wunderground v.1.15,2013-12-19 14:10:00,
2013-12-19 10:20:00,19.4,15.6,30.07,West,266,3.0,3.0,85,0.00,,,0.00,Wunderground v.1.15,2013-12-19 14:20:00,
2013-12-19 10:30:00,19.6,15.6,30.07,SSW,203,3.0,15.0,84,0.00,,,0.00,Wunderground v.1.15,2013-12-19 14:30:00,
2013-12-19 10:40:00,19.6,15.3,30.07,SSW,207,4.0,4.0,83,0.00,,,0.00,Wunderground v.1.15,2013-12-19 14:40:00,
2013-12-19 10:50:00,20.0,15.7,30.07,South,188,3.0,3.0,83,0.00,,,0.00,Wunderground v.1.15,2013-12-19 14:50:00,
2013-12-19 11:00:00,20.2,15.6,30.07,WSW,238,3.0,15.0,82,0.00,,,0.00,Wunderground v.1.15,2013-12-19 15:00:00,
2013-12-19 11:10:00,20.2,15.6,30.07,SW,235,4.0,4.0,82,0.00,,,0.00,Wunderground v.1.15,2013-12-19 15:10:00,
2013-12-19 11:20:00,20.1,15.2,30.07,West,259,5.0,15.0,81,0.00,,,0.00,Wunderground v.1.15,2013-12-19 15:20:00,
2013-12-19 11:30:00,20.2,15.3,30.08,SW,233,5.0,5.0,81,0.00,,,0.00,Wunderground v.1.15,2013-12-19 15:30:00,
2013-12-19 11:40:00,21.0,16.1,30.07,West,278,3.0,3.0,81,0.00,,,0.00,Wunderground v.1.15,2013-12-19 15:40:00,
2013-12-19 11:50:00,21.3,16.1,30.06,SW,219,3.0,15.0,80,0.00,,,0.00,Wunderground v.1.15,2013-12-19 15:50:00,
2013-12-19 12:00:00,21.3,15.2,30.07,NW,304,4.0,4.0,77,0.00,,,0.00,Wunderground v.1.15,2013-12-19 16:00:00,
2013-12-19 12:10:00,21.4,15.3,30.06,SSW,193,5.0,15.0,77,0.00,,,0.00,Wunderground v.1.15,2013-12-19 16:10:00,
2013-12-19 12:20:00,21.6,15.5,30.06,SSW,204,5.0,5.0,77,0.00,,,0.00,Wunderground v.1.15,2013-12-19 16:20:00,
2013-12-19 12:30:00,21.1,15.6,30.05,West,276,6.0,6.0,79,0.00,,,0.00,Wunderground v.1.15,2013-12-19 16:30:00,
2013-12-19 12:40:00,20.8,15.6,30.06,SSW,193,5.0,5.0,80,0.00,,,0.00,Wunderground v.1.15,2013-12-19 16:40:00,
2013-12-19 12:50:00,20.9,16.0,30.05,WSW,257,4.0,4.0,81,0.00,,,0.00,Wunderground v.1.15,2013-12-19 16:50:00,
2013-12-19 13:00:00,21.2,16.3,30.05,SSW,206,4.0,15.0,81,0.00,,,0.00,Wunderground v.1.15,2013-12-19 17:00:00,
2013-12-19 13:10:00,21.7,16.8,30.05,SW,219,3.0,15.0,81,0.00,,,0.00,Wunderground v.1.15,2013-12-19 17:10:00,
2013-12-19 13:20:00,21.8,16.0,30.05,SW,233,4.0,4.0,78,0.00,,,0.00,Wunderground v.1.15,2013-12-19 17:20:00,
2013-12-19 13:30:00,21.8,16.3,30.05,WSW,258,4.0,15.0,79,0.00,,,0.00,Wunderground v.1.15,2013-12-19 17:30:00,
2013-12-19 13:40:00,22.4,16.6,30.05,SW,228,4.0,15.0,78,0.00,,,0.00,Wunderground v.1.15,2013-12-19 17:40:00,
2013-12-19 13:50:00,22.3,16.2,30.05,SSW,207,3.0,15.0,77,0.00,,,0.00,Wunderground v.1.15,2013-12-19 17:50:00,
2013-12-19 14:00:00,21.5,15.1,30.05,SW,226,4.0,15.0,76,0.00,,,0.00,Wunderground v.1.15,2013-12-19 18:00:00,
2013-12-19 14:10:00,21.1,15.3,30.06,SW,233,3.0,15.0,78,0.00,,,0.00,Wunderground v.1.15,2013-12-19 18:10:00,
2013-12-19 14:20:00,21.3,15.8,30.06,SW,225,3.0,15.0,79,0.00,,,0.00,Wunderground v.1.15,2013-12-19 18:20:00,
2013-12-19 14:30:00,21.5,15.7,30.06,SW,218,3.0,3.0,78,0.00,,,0.00,Wunderground v.1.15,2013-12-19 18:30:00,
2013-12-19 14:40:00,21.3,15.5,30.07,WSW,255,2.0,2.0,78,0.00,,,0.00,Wunderground v.1.15,2013-12-19 18:40:00,
2013-12-19 14:50:00,21.0,15.5,30.07,SSW,212,2.0,15.0,79,0.00,,,0.00,Wunderground v.1.15,2013-12-19 18:50:00,
2013-12-19 15:00:00,20.9,15.4,30.07,WSW,249,3.0,15.0,79,0.00,,,0.00,Wunderground v.1.15,2013-12-19 19:00:00,
2013-12-19 15:10:00,20.9,15.4,30.08,SW,225,2.0,2.0,79,0.00,,,0.00,Wunderground v.1.15,2013-12-19 19:10:00,
2013-12-19 15:20:00,21.1,15.6,30.08,SSW,207,1.0,15.0,79,0.00,,,0.00,Wunderground v.1.15,2013-12-19 19:20:00,
2013-12-19 15:30:00,20.9,15.1,30.09,SW,235,3.0,15.0,78,0.00,,,0.00,Wunderground v.1.15,2013-12-19 19:30:00,
2013-12-19 15:40:00,20.7,14.9,30.09,WNW,295,5.0,5.0,78,0.00,,,0.00,Wunderground v.1.15,2013-12-19 19:40:00,
2013-12-19 15:50:00,20.7,14.9,30.09,SW,221,5.0,15.0,78,0.00,,,0.00,Wunderground v.1.15,2013-12-19 19:50:00,
2013-12-19 16:00:00,20.7,15.2,30.08,SSW,210,4.0,4.0,79,0.00,,,0.00,Wunderground v.1.15,2013-12-19 20:00:00,
2013-12-19 16:10:00,20.5,15.0,30.08,SW,217,3.0,3.0,79,0.00,,,0.00,Wunderground v.1.15,2013-12-19 20:10:00,
2013-12-19 16:20:00,20.3,15.1,30.08,SW,214,1.0,1.0,80,0.00,,,0.00,Wunderground v.1.15,2013-12-19 20:20:00,
2013-12-19 16:30:00,19.9,15.0,30.08,SSW,213,1.0,1.0,81,0.00,,,0.00,Wunderground v.1.15,2013-12-19 20:30:00,
2013-12-19 16:40:00,19.8,15.2,30.07,SW,217,1.0,1.0,82,0.00,,,0.00,Wunderground v.1.15,2013-12-19 20:40:00,
2013-12-19 16:50:00,19.4,14.8,30.08,SSW,201,1.0,15.0,82,0.00,,,0.00,Wunderground v.1.15,2013-12-19 20:50:00,
2013-12-19 17:00:00,19.3,15.0,30.07,SSW,197,1.0,1.0,83,0.00,,,0.00,Wunderground v.1.15,2013-12-19 21:00:00,
2013-12-19 17:10:00,19.0,14.7,30.07,SSW,200,0.0,15.0,83,0.00,,,0.00,Wunderground v.1.15,2013-12-19 21:10:00,
2013-12-19 17:20:00,18.6,14.3,30.07,SSE,168,1.0,15.0,83,0.00,,,0.00,Wunderground v.1.15,2013-12-19 21:20:00,
2013-12-19 17:30:00,18.7,14.7,30.06,SSE,158,2.0,2.0,84,0.00,,,0.00,Wunderground v.1.15,2013-12-19 21:30:00,
2013-12-19 17:40:00,18.6,14.8,30.06,SE,143,1.0,15.0,85,0.00,,,0.00,Wunderground v.1.15,2013-12-19 21:40:00,
2013-12-19 17:50:00,18.4,14.9,30.06,SE,141,1.0,15.0,86,0.00,,,0.00,Wunderground v.1.15,2013-12-19 21:50:00,
2013-12-19 18:00:00,18.5,15.0,30.07,SSE,159,1.0,15.0,86,0.00,,,0.00,Wunderground v.1.15,2013-12-19 22:00:00,
2013-12-19 18:10:00,18.6,15.1,30.06,SSW,193,1.0,15.0,86,0.00,,,0.00,Wunderground v.1.15,2013-12-19 22:10:00,
2013-12-19 18:20:00,19.1,15.6,30.06,SSW,195,2.0,15.0,86,0.00,,,0.00,Wunderground v.1.15,2013-12-19 22:20:00,
2013-12-19 18:30:00,19.7,15.9,30.07,SSW,194,3.0,15.0,85,0.00,,,0.00,Wunderground v.1.15,2013-12-19 22:30:00,
2013-12-19 18:40:00,19.8,16.0,30.07,SSW,193,3.0,3.0,85,0.00,,,0.00,Wunderground v.1.15,2013-12-19 22:40:00,
2013-12-19 18:50:00,19.9,16.1,30.07,SSW,200,2.0,15.0,85,0.00,,,0.00,Wunderground v.1.15,2013-12-19 22:50:00,
2013-12-19 19:00:00,20.1,16.3,30.07,South,183,2.0,15.0,85,0.00,,,0.00,Wunderground v.1.15,2013-12-19 23:00:00,
2013-12-19 19:10:00,20.1,16.6,30.07,SSW,203,2.0,2.0,86,0.00,,,0.00,Wunderground v.1.15,2013-12-19 23:10:00,
2013-12-19 19:20:00,20.2,17.0,30.08,SSW,203,2.0,15.0,87,0.00,,,0.00,Wunderground v.1.15,2013-12-19 23:20:00,
2013-12-19 19:30:00,20.2,17.0,30.08,South,187,1.0,15.0,87,0.00,,,0.00,Wunderground v.1.15,2013-12-19 23:30:00,
2013-12-19 19:40:00,20.4,17.4,30.08,SW,217,1.0,15.0,88,0.00,,,0.00,Wunderground v.1.15,2013-12-19 23:40:00,
2013-12-19 19:50:00,20.6,17.9,30.08,SSW,197,2.0,2.0,89,0.00,,,0.00,Wunderground v.1.15,2013-12-19 23:50:00,
2013-12-19 20:00:00,20.8,18.3,30.08,SSW,195,1.0,1.0,90,0.00,,,0.00,Wunderground v.1.15,2013-12-20 00:00:00,
2013-12-19 20:10:00,20.8,18.3,30.08,SSW,211,1.0,1.0,90,0.00,,,0.00,Wunderground v.1.15,2013-12-20 00:10:00,
2013-12-19 20:20:00,20.6,18.1,30.08,SSW,197,0.0,15.0,90,0.00,,,0.00,Wunderground v.1.15,2013-12-20 00:20:00,
2013-12-19 20:30:00,20.8,18.6,30.08,SSW,193,1.0,15.0,91,0.00,,,0.00,Wunderground v.1.15,2013-12-20 00:30:00,
2013-12-19 20:40:00,20.9,18.7,30.08,South,186,2.0,15.0,91,0.00,,,0.00,Wunderground v.1.15,2013-12-20 00:40:00,
2013-12-19 20:50:00,21.1,18.9,30.08,SSW,197,3.0,3.0,91,0.00,,,0.00,Wunderground v.1.15,2013-12-20 00:50:00,
2013-12-19 21:00:00,21.3,19.1,30.08,SSW,201,3.0,15.0,91,0.00,,,0.00,Wunderground v.1.15,2013-12-20 01:00:00,
2013-12-19 21:10:00,21.5,19.3,30.08,SSW,207,2.0,15.0,91,0.00,,,0.00,Wunderground v.1.15,2013-12-20 01:10:00,
2013-12-19 21:20:00,21.9,19.7,30.08,South,189,2.0,2.0,91,0.00,,,0.00,Wunderground v.1.15,2013-12-20 01:20:00,
2013-12-19 21:30:00,22.5,20.0,30.09,SW,215,3.0,15.0,90,0.00,,,0.00,Wunderground v.1.15,2013-12-20 01:30:00,
2013-12-19 21:40:00,22.8,20.0,30.09,SSW,211,3.0,3.0,89,0.00,,,0.00,Wunderground v.1.15,2013-12-20 01:40:00,
2013-12-19 21:50:00,23.0,20.2,30.09,South,179,3.0,15.0,89,0.00,,,0.00,Wunderground v.1.15,2013-12-20 01:50:00,
2013-12-19 22:00:00,23.2,20.2,30.09,SSW,210,4.0,15.0,88,0.00,,,0.00,Wunderground v.1.15,2013-12-20 02:00:00,
2013-12-19 22:10:00,23.1,20.1,30.10,SW,225,3.0,3.0,88,0.00,,,0.00,Wunderground v.1.15,2013-12-20 02:10:00,
2013-12-19 22:20:00,23.1,20.1,30.10,SSW,204,2.0,2.0,88,0.00,,,0.00,Wunderground v.1.15,2013-12-20 02:20:00,
2013-12-19 22:30:00,23.0,20.0,30.11,West,277,1.0,15.0,88,0.00,,,0.00,Wunderground v.1.15,2013-12-20 02:30:00,
2013-12-19 22:40:00,22.9,19.9,30.11,SW,217,2.0,2.0,88,0.00,,,0.00,Wunderground v.1.15,2013-12-20 02:40:00,
2013-12-19 22:50:00,22.8,19.8,30.11,SW,226,1.0,15.0,88,0.00,,,0.00,Wunderground v.1.15,2013-12-20 02:50:00,
2013-12-19 23:00:00,22.7,19.4,30.12,SW,228,1.0,15.0,87,0.00,,,0.00,Wunderground v.1.15,2013-12-20 03:00:00,
2013-12-19 23:10:00,22.7,19.4,30.12,South,186,2.0,2.0,87,0.00,,,0.00,Wunderground v.1.15,2013-12-20 03:10:00,
2013-12-19 23:20:00,22.7,19.1,30.13,West,262,2.0,2.0,86,0.00,,,0.00,Wunderground v.1.15,2013-12-20 03:20:00,
2013-12-19 23:30:00,22.6,19.0,30.13,SW,228,1.0,15.0,86,0.00,,,0.00,Wunderground v.1.15,2013-12-20 03:30:00,
2013-12-19 23:40:00,22.6,19.0,30.13,WSW,242,2.0,15.0,86,0.00,,,0.00,Wunderground v.1.15,2013-12-20 03:40:00,
2013-12-19 23:50:00,22.6,19.0,30.13,WSW,250,2.0,15.0,86,0.00,,,0.00,Wunderground v.1.15,2013-12-20 03:50:00,